Time;durP1;ratioP1;P1;durP2;ratioP2;P2;SDS_P1;SDS_P2;PMS_P1;PMS_P2;Temp;Humidity;BMP_temperature;BMP_pressure;BME280_temperature;BME280_humidity;BME280_pressure;Samples;Min_cycle;Max_cycle;Signal;HPM_P1;HPM_P2
2023/10/10 00:01:05;;;;;;;2.35;1.55;;;25.20;45.10;;;;;;5051691;28;20482;-76
2023/10/10 00:03:32;;;;;;;3.58;1.90;;;25.10;45.10;;;;;;5067271;28;20033;-76
2023/10/10 00:06:08;;;;;;;3.00;2.08;;;25.10;45.10;;;;;;5052957;28;20442;-76
2023/10/10 00:08:43;;;;;;;3.08;1.70;;;25.20;45.10;;;;;;5053054;28;20095;-76
2023/10/10 00:11:19;;;;;;;2.92;1.63;;;25.20;45.20;;;;;;5052407;28;20404;-75
2023/10/10 00:13:47;;;;;;;2.42;1.52;;;25.20;45.20;;;;;;5052845;28;20036;-75
2023/10/10 00:19:01;;;;;;;2.30;1.88;;;25.20;45.20;;;;;;5052681;28;20123;-76
2023/10/10 00:21:30;;;;;;;5.22;1.85;;;25.10;45.20;;;;;;5050499;28;20061;-75
2023/10/10 00:23:56;;;;;;;6.97;2.08;;;25.10;45.30;;;;;;5052406;28;20053;-76
2023/10/10 00:26:22;;;;;;;5.82;2.35;;;25.10;45.30;;;;;;5051359;28;20394;-76
2023/10/10 00:28:57;;;;;;;3.90;2.22;;;25.10;45.30;;;;;;5052669;28;20112;-76
2023/10/10 00:31:26;;;;;;;4.85;2.03;;;25.10;45.30;;;;;;5052052;28;20056;-76
2023/10/10 00:33:53;;;;;;;5.07;2.10;;;25.10;45.30;;;;;;5053346;28;20468;-76
2023/10/10 00:36:31;;;;;;;4.78;2.47;;;25.20;45.30;;;;;;5052257;28;20094;-76
2023/10/10 00:44:17;;;;;;;4.20;2.28;;;25.20;45.30;;;;;;5017630;28;20883;-76
2023/10/10 00:46:51;;;;;;;4.25;2.28;;;25.10;45.30;;;;;;5029904;28;20053;-75
2023/10/10 00:49:25;;;;;;;5.70;2.25;;;25.20;45.30;;;;;;5013195;28;20473;-75
2023/10/10 00:51:53;;;;;;;2.55;1.83;;;25.10;45.30;;;;;;5029759;28;20034;-75
2023/10/10 00:56:54;;;;;;;6.70;2.53;;;25.10;45.30;;;;;;5013599;28;20068;-76
2023/10/10 00:59:35;;;;;;;4.28;2.33;;;25.10;45.30;;;;;;4996233;28;20033;-76
2023/10/10 01:02:03;;;;;;;4.07;2.03;;;25.10;45.30;;;;;;5012513;28;20124;-75
2023/10/10 01:04:35;;;;;;;5.13;2.35;;;25.10;45.30;;;;;;5012818;28;20141;-75
2023/10/10 01:07:07;;;;;;;7.07;2.73;;;25.00;45.30;;;;;;5013310;28;20049;-76
2023/10/10 01:09:39;;;;;;;4.60;2.25;;;25.00;45.30;;;;;;5012983;28;20041;-76
2023/10/10 01:12:06;;;;;;;3.58;2.25;;;25.00;45.30;;;;;;5014504;28;20049;-75
2023/10/10 01:14:32;;;;;;;4.57;2.45;;;25.10;45.30;;;;;;4996202;28;20539;-76
2023/10/10 01:16:58;;;;;;;4.57;2.67;;;25.00;45.40;;;;;;4996423;28;20070;-76
2023/10/10 01:19:31;;;;;;;3.58;2.30;;;25.00;45.40;;;;;;5033210;28;20043;-76
2023/10/10 01:21:58;;;;;;;4.68;2.53;;;25.00;45.40;;;;;;5032124;28;20124;-75
2023/10/10 01:24:26;;;;;;;5.57;2.65;;;25.00;45.40;;;;;;5049065;28;20037;-76
2023/10/10 01:27:03;;;;;;;4.13;2.17;;;25.00;45.40;;;;;;5048794;28;20044;-76
2023/10/10 01:29:40;;;;;;;4.15;2.30;;;25.00;45.40;;;;;;5048968;28;20479;-76
2023/10/10 01:32:10;;;;;;;3.63;2.28;;;25.00;45.40;;;;;;5048562;28;20061;-76
2023/10/10 01:34:45;;;;;;;3.53;2.28;;;25.10;45.40;;;;;;5032745;28;20072;-76
2023/10/10 01:37:14;;;;;;;6.05;3.40;;;25.10;45.40;;;;;;5031981;28;20138;-76
2023/10/10 01:39:51;;;;;;;6.88;2.50;;;25.00;45.30;;;;;;5015889;28;20037;-76
2023/10/10 01:42:23;;;;;;;5.07;2.42;;;25.00;45.40;;;;;;5032145;28;20041;-76
2023/10/10 01:44:51;;;;;;;5.47;2.33;;;25.10;45.40;;;;;;5029271;28;20443;-76
2023/10/10 01:47:26;;;;;;;4.35;2.35;;;25.10;45.40;;;;;;5022420;28;20291;-75
2023/10/10 01:49:58;;;;;;;3.75;2.35;;;24.90;45.40;;;;;;5025607;28;20144;-76
2023/10/10 01:52:25;;;;;;;4.13;2.15;;;24.90;45.40;;;;;;5049010;28;20049;-75
2023/10/10 01:54:53;;;;;;;5.63;2.30;;;25.00;45.40;;;;;;5032426;28;20036;-76
2023/10/10 01:57:24;;;;;;;4.82;2.78;;;24.90;45.50;;;;;;5048762;28;20053;-77
2023/10/10 01:59:55;;;;;;;5.95;2.88;;;25.00;45.50;;;;;;5032246;28;20053;-76
2023/10/10 02:02:24;;;;;;;4.20;2.33;;;25.00;45.60;;;;;;5062387;28;20049;-76
2023/10/10 02:04:56;;;;;;;4.78;2.60;;;25.00;45.60;;;;;;5032267;28;20053;-75
2023/10/10 02:07:26;;;;;;;5.13;2.10;;;24.90;45.60;;;;;;5048888;28;20447;-76
2023/10/10 02:12:44;;;;;;;9.93;3.25;;;24.80;45.60;;;;;;5000799;28;20501;-76
2023/10/10 02:15:18;;;;;;;5.50;2.92;;;24.80;45.70;;;;;;5023778;28;20057;-76
2023/10/10 02:17:55;;;;;;;6.55;2.53;;;24.80;45.70;;;;;;5025342;28;20053;-76
2023/10/10 02:22:54;;;;;;;6.18;2.65;;;24.80;45.80;;;;;;5007996;28;20572;-76
2023/10/10 02:28:03;;;;;;;6.68;2.63;;;24.70;45.90;;;;;;5011398;28;20124;-76
2023/10/10 02:30:36;;;;;;;5.28;3.33;;;24.80;45.90;;;;;;5011945;28;20065;-76
2023/10/10 02:35:54;;;;;;;3.40;2.63;;;24.80;46.00;;;;;;4973684;28;20030;-76
2023/10/10 02:38:40;;;;;;;5.32;3.10;;;24.70;46.10;;;;;;4957553;28;20399;-76
2023/10/10 02:46:39;;;;;;;5.05;2.40;;;24.70;46.10;;;;;;4992382;28;20043;-76
2023/10/10 02:49:13;;;;;;;5.13;2.42;;;24.80;46.10;;;;;;4997546;28;20038;-76
2023/10/10 02:51:43;;;;;;;3.50;2.10;;;24.80;46.10;;;;;;5012297;28;20120;-76
2023/10/10 02:57:05;;;;;;;;;;;25.00;46.10;;;;;;5032340;28;20132;-75
2023/10/10 02:59:31;;;;;;;4.47;2.67;;;24.90;46.10;;;;;;5031471;28;19951;-76
2023/10/10 03:02:18;;;;;;;5.28;3.10;;;24.90;46.10;;;;;;5031418;28;20037;-76
2023/10/10 03:04:53;;;;;;;4.97;2.55;;;24.90;46.00;;;;;;5024859;28;20085;-76
2023/10/10 03:07:20;;;;;;;4.57;2.67;;;24.90;45.90;;;;;;5033528;28;20119;-76
2023/10/10 03:12:36;;;;;;;6.93;2.38;;;25.00;45.90;;;;;;5038685;28;20025;-76
2023/10/10 03:36:23;;;;;;;5.65;3.10;;;25.30;45.80;;;;;;5029124;28;20523;-75
2023/10/10 05:25:31;;;;;;;7.07;3.63;;;25.60;46.40;;;;;;5048403;28;20057;-74
2023/10/10 05:28:00;;;;;;;7.18;3.70;;;25.70;46.60;;;;;;5048027;28;20119;-72
2023/10/10 05:30:39;;;;;;;5.60;3.25;;;25.60;46.50;;;;;;5046787;28;20037;-74
2023/10/10 05:33:06;;;;;;;5.05;3.70;;;25.70;47.40;;;;;;5048901;28;20040;-72
2023/10/10 05:35:38;;;;;;;10.32;3.50;;;25.60;48.10;;;;;;5047659;28;20095;-73
2023/10/10 05:38:07;;;;;;;8.68;3.58;;;25.60;47.50;;;;;;5033838;28;20135;-73
2023/10/10 05:40:34;;;;;;;5.72;3.28;;;25.70;47.50;;;;;;5048529;28;20037;-73
2023/10/10 05:43:04;;;;;;;11.25;3.67;;;25.60;47.50;;;;;;5015284;28;20179;-74
2023/10/10 05:45:30;;;;;;;8.55;3.17;;;25.60;47.40;;;;;;5028683;28;20049;-73
2023/10/10 05:47:56;;;;;;;6.72;3.47;;;25.50;47.40;;;;;;5028892;28;20045;-73
2023/10/10 05:50:22;;;;;;;7.03;3.75;;;25.50;47.50;;;;;;5035270;28;20030;-73
2023/10/10 05:52:48;;;;;;;7.55;4.00;;;25.60;47.60;;;;;;5032197;28;20025;-73
2023/10/10 05:55:15;;;;;;;5.47;3.83;;;25.50;47.90;;;;;;5048055;28;20073;-73
2023/10/10 05:57:41;;;;;;;8.18;3.75;;;25.80;47.90;;;;;;5050340;28;20092;-73
2023/10/10 06:00:10;;;;;;;7.15;3.65;;;25.60;47.80;;;;;;5051329;28;20479;-72
2023/10/10 06:02:41;;;;;;;7.72;4.13;;;25.60;47.90;;;;;;5051923;28;20038;-73
2023/10/10 06:05:11;;;;;;;8.38;3.72;;;25.50;47.70;;;;;;5050510;28;20412;-73
2023/10/10 06:07:37;;;;;;;7.70;3.65;;;25.60;47.50;;;;;;5048638;28;20073;-72
2023/10/10 06:10:07;;;;;;;10.05;3.42;;;25.60;47.40;;;;;;5052916;28;20053;-74
2023/10/10 06:12:36;;;;;;;7.90;3.67;;;25.60;47.20;;;;;;5053174;28;20033;-75
2023/10/10 06:15:05;;;;;;;7.60;3.22;;;25.50;47.20;;;;;;5070286;28;20104;-75
2023/10/10 06:17:34;;;;;;;5.70;2.95;;;25.50;47.30;;;;;;5054942;28;20611;-75
2023/10/10 06:20:01;;;;;;;5.15;3.40;;;25.50;47.30;;;;;;5054338;28;20028;-74
2023/10/10 06:22:29;;;;;;;8.05;3.28;;;25.50;47.40;;;;;;5054580;28;20056;-73
2023/10/10 06:24:58;;;;;;;8.80;3.22;;;25.40;47.60;;;;;;5052124;28;20037;-75
2023/10/10 06:27:32;;;;;;;7.93;3.22;;;25.50;47.90;;;;;;5054597;28;20041;-73
2023/10/10 06:29:58;;;;;;;6.18;3.28;;;25.50;48.10;;;;;;5053746;28;20048;-74
2023/10/10 06:32:32;;;;;;;5.38;3.40;;;25.40;48.10;;;;;;5054275;28;20116;-74
2023/10/10 06:35:27;;;;;;;9.32;3.95;;;25.50;48.20;;;;;;5054424;28;20029;-74
2023/10/10 06:37:53;;;;;;;7.63;3.15;;;25.30;48.20;;;;;;5052559;28;20644;-73
2023/10/10 06:40:28;;;;;;;9.00;4.10;;;25.30;48.30;;;;;;5053055;28;20402;-75
2023/10/10 06:42:57;;;;;;;7.30;3.70;;;25.50;48.30;;;;;;5053415;28;20507;-75
2023/10/10 06:45:25;;;;;;;7.15;3.50;;;25.30;48.30;;;;;;5053584;28;20163;-73
2023/10/10 06:47:51;;;;;;;5.00;3.15;;;25.30;48.20;;;;;;5052013;28;20760;-74
2023/10/10 06:50:21;;;;;;;6.95;3.67;;;25.40;48.40;;;;;;5054227;28;20116;-75
2023/10/10 06:52:54;;;;;;;7.53;3.47;;;25.40;48.40;;;;;;5054513;28;20033;-74
2023/10/10 06:55:22;;;;;;;8.45;3.50;;;25.30;48.60;;;;;;5052911;28;20403;-76
2023/10/10 06:58:02;;;;;;;10.48;3.60;;;25.40;48.70;;;;;;5069263;28;20470;-74
2023/10/10 07:00:54;;;;;;;5.80;3.03;;;25.40;48.80;;;;;;5056249;28;20036;-75
2023/10/10 07:03:18;;;;;;;4.90;3.10;;;25.30;48.80;;;;;;5054303;28;20190;-74
2023/10/10 07:05:45;;;;;;;6.22;2.72;;;25.50;48.80;;;;;;5054149;28;20044;-74
2023/10/10 07:08:24;;;;;;;3.15;2.15;;;25.40;48.80;;;;;;5054012;28;20499;-74
2023/10/10 07:10:53;;;;;;;5.55;2.67;;;25.50;48.70;;;;;;5069260;28;20040;-75
2023/10/10 07:13:21;;;;;;;5.78;2.97;;;25.40;48.60;;;;;;5053638;28;20029;-75
2023/10/10 07:15:53;;;;;;;4.65;1.90;;;25.40;48.60;;;;;;5054070;28;20036;-75
2023/10/10 07:18:22;;;;;;;;;;;25.40;48.50;;;;;;5054323;28;20028;-74
2023/10/10 07:21:17;;;;;;;4.88;3.00;;;25.30;48.50;;;;;;5053617;28;19913;-74
2023/10/10 07:26:41;;;;;;;5.07;2.70;;;25.40;48.40;;;;;;5031110;28;20141;-74
2023/10/10 07:32:07;;;;;;;3.38;1.95;;;25.50;48.30;;;;;;5031331;28;20045;-74
2023/10/10 07:34:38;;;;;;;2.25;1.58;;;25.40;48.20;;;;;;5015004;28;20045;-74
2023/10/10 07:37:08;;;;;;;6.35;3.35;;;25.50;48.10;;;;;;5031497;28;20133;-74
2023/10/10 07:39:54;;;;;;;1.92;1.60;;;25.50;48.10;;;;;;5010594;28;20110;-75
2023/10/10 07:42:29;;;;;;;3.92;2.67;;;25.40;48.00;;;;;;5011740;28;20441;-74
2023/10/10 07:44:58;;;;;;;3.00;2.55;;;25.40;47.90;;;;;;5011051;28;20092;-74
2023/10/10 07:47:26;;;;;;;5.55;2.42;;;25.50;47.90;;;;;;5011268;28;20088;-75
2023/10/10 07:49:59;;;;;;;3.03;1.63;;;25.40;47.90;;;;;;5011311;28;20498;-74
2023/10/10 07:52:25;;;;;;;5.20;1.88;;;25.40;47.80;;;;;;4999834;28;20034;-74
2023/10/10 07:55:03;;;;;;;4.28;1.77;;;25.30;47.80;;;;;;4975169;28;20064;-75
2023/10/10 07:57:29;;;;;;;5.40;1.80;;;25.30;47.70;;;;;;4975550;28;20471;-74
2023/10/10 07:59:57;;;;;;;5.25;1.85;;;25.30;47.70;;;;;;4975392;28;20046;-74
2023/10/10 08:04:57;;;;;;;3.60;2.05;;;25.40;47.70;;;;;;5011017;28;20049;-75
2023/10/10 08:07:24;;;;;;;4.68;2.45;;;25.30;47.60;;;;;;5010772;28;20073;-75
2023/10/10 08:10:12;;;;;;;4.00;2.63;;;25.20;47.60;;;;;;5006379;28;20041;-75
2023/10/10 08:12:43;;;;;;;5.53;2.53;;;25.30;47.70;;;;;;5053039;28;20503;-74
2023/10/10 08:15:24;;;;;;;4.35;2.45;;;25.30;47.70;;;;;;5053026;28;20076;-75
2023/10/10 08:17:52;;;;;;;6.97;2.40;;;25.30;47.70;;;;;;5054863;28;20476;-75
2023/10/10 08:23:08;;;;;;;3.35;2.00;;;25.30;47.70;;;;;;5052019;28;20053;-74
2023/10/10 08:25:37;;;;;;;4.30;2.75;;;25.30;47.70;;;;;;5066609;28;20029;-75
2023/10/10 08:28:04;;;;;;;8.80;2.80;;;25.40;47.60;;;;;;5072910;28;20476;-75
2023/10/10 08:30:30;;;;;;;5.80;2.63;;;25.20;47.70;;;;;;5071236;28;20032;-74
2023/10/10 08:32:58;;;;;;;3.60;2.50;;;25.30;47.70;;;;;;5072857;28;20039;-74
2023/10/10 08:35:29;;;;;;;7.60;2.65;;;25.30;47.60;;;;;;5071451;28;20033;-75
2023/10/10 08:37:58;;;;;;;5.47;2.15;;;25.30;47.60;;;;;;5071198;28;20078;-74
2023/10/10 08:40:33;;;;;;;4.78;2.78;;;25.30;47.60;;;;;;5055954;28;20040;-74
2023/10/10 08:43:02;;;;;;;4.43;2.55;;;25.30;47.60;;;;;;5051233;28;20029;-73
2023/10/10 08:45:39;;;;;;;4.15;2.47;;;25.20;47.40;;;;;;5050828;28;20071;-73
2023/10/10 08:48:12;;;;;;;6.13;2.22;;;25.30;47.10;;;;;;5066930;28;20036;-73
2023/10/10 08:50:40;;;;;;;6.10;2.03;;;25.30;46.90;;;;;;5049798;28;20111;-73
2023/10/10 08:53:16;;;;;;;4.82;2.40;;;25.30;46.80;;;;;;5050896;28;20064;-72
2023/10/10 08:55:42;;;;;;;6.07;2.22;;;25.10;46.60;;;;;;5043081;28;20094;-76
2023/10/10 08:58:08;;;;;;;4.63;2.25;;;25.30;47.10;;;;;;5053240;28;20552;-71
2023/10/10 09:00:37;;;;;;;7.10;2.45;;;25.10;46.90;;;;;;5051318;28;20452;-74
2023/10/10 09:03:07;;;;;;;3.22;2.15;;;25.10;47.10;;;;;;5050013;28;20127;-73
2023/10/10 09:05:33;;;;;;;8.43;1.90;;;25.20;47.00;;;;;;5051657;28;20037;-73
2023/10/10 09:08:14;;;;;;;3.67;2.00;;;25.10;47.00;;;;;;5049841;28;20070;-73
2023/10/10 09:10:43;;;;;;;5.03;1.95;;;25.20;47.00;;;;;;5031818;28;20064;-74
2023/10/10 09:13:09;;;;;;;3.88;2.13;;;25.10;47.00;;;;;;5031894;28;20041;-74
2023/10/10 09:15:36;;;;;;;5.38;2.42;;;25.00;47.10;;;;;;5031853;28;20033;-73
2023/10/10 09:18:14;;;;;;;3.50;2.63;;;25.00;47.20;;;;;;5030311;28;20374;-73
2023/10/10 09:20:40;;;;;;;3.58;1.83;;;25.10;47.20;;;;;;5031641;28;20052;-73
2023/10/10 09:23:25;;;;;;;3.30;1.90;;;25.00;47.20;;;;;;5034574;28;20044;-74
2023/10/10 09:25:58;;;;;;;3.33;2.00;;;25.10;47.20;;;;;;5066614;28;20048;-73
2023/10/10 09:28:36;;;;;;;6.28;2.03;;;25.10;47.30;;;;;;5051211;28;20033;-73
2023/10/10 09:31:03;;;;;;;2.50;1.52;;;25.10;47.30;;;;;;5050642;28;20041;-73
2023/10/10 09:33:30;;;;;;;3.75;1.35;;;25.10;47.30;;;;;;5031462;28;20029;-74
2023/10/10 09:36:09;;;;;;;5.25;1.70;;;25.10;47.30;;;;;;5031235;28;20038;-74
2023/10/10 09:38:40;;;;;;;3.05;1.65;;;25.10;47.30;;;;;;5039308;28;20443;-73
2023/10/10 09:41:26;;;;;;;3.35;1.77;;;25.10;47.40;;;;;;5067002;28;20061;-73
2023/10/10 09:57:42;;;;;;;2.55;0.93;;;25.10;47.40;;;;;;5051368;28;20040;-73
2023/10/10 10:00:15;;;;;;;4.15;1.98;;;25.00;47.40;;;;;;5049803;28;20033;-73
2023/10/10 10:02:49;;;;;;;;;;;25.00;47.40;;;;;;5050728;28;20033;-73
2023/10/10 10:05:21;;;;;;;1.92;1.25;;;25.00;47.40;;;;;;5051248;28;19943;-73
2023/10/10 10:08:13;;;;;;;2.45;1.80;;;25.00;47.40;;;;;;5050530;28;20087;-73
2023/10/10 10:11:11;;;;;;;2.67;1.30;;;25.00;47.40;;;;;;5050216;28;20088;-73
2023/10/10 10:13:37;;;;;;;4.55;1.58;;;25.00;47.40;;;;;;5050631;28;20033;-73
2023/10/10 10:16:20;;;;;;;2.20;1.60;;;25.00;47.50;;;;;;5046270;28;20430;-73
2023/10/10 10:18:52;;;;;;;3.17;1.90;;;24.90;47.50;;;;;;5029666;28;20045;-76
2023/10/10 10:21:30;;;;;;;2.53;1.50;;;24.90;47.40;;;;;;5031123;28;20136;-75
2023/10/10 10:24:15;;;;;;;7.03;1.75;;;25.00;47.90;;;;;;5043036;28;20056;-76
2023/10/10 10:26:43;;;;;;;4.18;1.30;;;25.20;50.60;;;;;;5049176;28;20115;-75
2023/10/10 10:29:26;;;;;;;1.35;1.25;;;25.40;51.20;;;;;;5049288;28;20033;-73
2023/10/10 10:31:59;;;;;;;2.40;1.52;;;25.50;48.80;;;;;;5049662;28;20035;-76
2023/10/10 10:37:13;;;;;;;3.60;1.80;;;25.40;45.80;;;;;;5050330;28;20033;-74
2023/10/10 10:39:46;;;;;;;;;;;25.30;45.50;;;;;;5061701;28;20033;-73
2023/10/10 10:42:12;;;;;;;1.55;1.25;;;25.40;45.40;;;;;;5048880;28;19909;-73
2023/10/10 10:44:54;;;;;;;7.65;2.10;;;25.40;45.00;;;;;;5047588;28;20479;-74
2023/10/10 10:47:39;;;;;;;3.65;1.50;;;25.40;45.50;;;;;;5050755;28;20029;-72
2023/10/10 10:50:18;;;;;;;5.95;1.80;;;25.50;45.80;;;;;;5052616;28;20024;-72
2023/10/10 10:52:55;;;;;;;3.45;1.70;;;25.60;45.50;;;;;;5058050;28;20492;-76
2023/10/10 10:55:29;;;;;;;8.30;1.63;;;25.80;44.90;;;;;;5052906;28;20396;-75
2023/10/10 10:58:06;;;;;;;2.40;1.02;;;25.70;44.60;;;;;;5052187;28;20087;-75
2023/10/10 11:01:06;;;;;;;5.88;2.20;;;25.80;45.00;;;;;;5053394;28;20021;-76
2023/10/10 11:03:37;;;;;;;0.90;0.90;;;25.90;46.20;;;;;;5056310;28;20044;-74
2023/10/10 11:06:09;;;;;;;5.65;2.63;;;26.00;48.80;;;;;;5052610;28;20025;-74
2023/10/10 11:11:36;;;;;;;4.25;2.28;;;26.20;50.20;;;;;;5053237;28;20487;-75
2023/10/10 11:14:10;;;;;;;5.88;2.10;;;26.20;47.00;;;;;;5052801;28;20508;-74
2023/10/10 11:16:46;;;;;;;4.75;2.00;;;26.30;45.20;;;;;;5052461;28;20530;-76
2023/10/10 11:21:56;;;;;;;2.97;2.30;;;26.30;43.30;;;;;;5052778;28;20053;-73
2023/10/10 11:24:24;;;;;;;7.50;2.53;;;26.40;42.90;;;;;;5046181;28;20058;-75
2023/10/10 11:29:42;;;;;;;4.30;2.00;;;26.30;43.40;;;;;;5052029;28;20544;-74
2023/10/10 11:32:12;;;;;;;3.28;1.98;;;26.30;43.50;;;;;;5053595;28;20021;-73
2023/10/10 11:34:44;;;;;;;6.50;2.80;;;26.20;43.60;;;;;;5053428;28;20032;-75
2023/10/10 11:37:32;;;;;;;;;;;26.30;43.70;;;;;;5054338;28;20056;-75
2023/10/10 11:43:04;;;;;;;6.43;2.75;;;26.20;43.90;;;;;;5052903;28;20437;-75
2023/10/10 11:45:39;;;;;;;2.30;2.00;;;26.20;43.90;;;;;;5048998;28;20488;-75
2023/10/10 11:48:12;;;;;;;5.47;2.28;;;26.10;44.00;;;;;;5051289;28;20044;-75
2023/10/10 11:50:56;;;;;;;2.45;1.58;;;26.10;44.10;;;;;;5052519;28;20039;-75
2023/10/10 11:53:23;;;;;;;3.08;2.13;;;26.00;44.20;;;;;;5052733;28;20033;-75
2023/10/10 11:55:52;;;;;;;2.78;2.50;;;26.00;44.20;;;;;;5051054;28;20040;-74
2023/10/10 11:58:35;;;;;;;5.78;2.63;;;26.00;44.20;;;;;;5050752;28;20055;-75
2023/10/10 12:01:06;;;;;;;2.90;2.03;;;26.00;44.20;;;;;;5034724;28;20124;-75
2023/10/10 12:06:05;;;;;;;3.60;1.97;;;25.90;43.60;;;;;;5051474;28;20069;-74
2023/10/10 12:08:36;;;;;;;4.15;2.97;;;25.90;43.50;;;;;;5052654;28;20025;-73
2023/10/10 12:11:11;;;;;;;4.50;2.67;;;25.90;43.40;;;;;;5052732;28;20141;-71
2023/10/10 12:13:44;;;;;;;3.33;2.50;;;25.90;43.30;;;;;;5052088;28;20541;-72
2023/10/10 12:16:10;;;;;;;5.38;2.60;;;25.90;43.40;;;;;;5034810;28;20037;-72
2023/10/10 12:18:44;;;;;;;3.28;2.38;;;25.70;43.30;;;;;;5069640;28;20114;-71
2023/10/10 12:21:19;;;;;;;2.20;1.60;;;25.90;43.40;;;;;;5053433;28;20388;-74
2023/10/10 12:23:48;;;;;;;2.50;2.30;;;25.70;43.30;;;;;;5069493;28;20048;-72
2023/10/10 12:26:17;;;;;;;4.47;3.10;;;25.80;43.40;;;;;;5053340;28;20040;-72
2023/10/10 12:28:46;;;;;;;2.45;1.52;;;25.80;44.10;;;;;;5053371;28;20036;-75
2023/10/10 12:31:16;;;;;;;4.10;2.97;;;25.90;44.50;;;;;;5070058;28;20491;-73
2023/10/10 12:33:48;;;;;;;3.65;3.15;;;25.80;44.40;;;;;;5053205;28;20097;-73
2023/10/10 12:36:15;;;;;;;5.72;3.03;;;25.80;44.40;;;;;;5069925;28;20055;-73
2023/10/10 12:38:41;;;;;;;3.40;1.92;;;25.80;44.40;;;;;;5070122;28;20044;-74
2023/10/10 12:41:15;;;;;;;5.63;1.85;;;25.70;44.40;;;;;;5053275;28;20071;-73
2023/10/10 12:43:41;;;;;;;5.18;2.30;;;25.60;44.50;;;;;;5053012;28;20446;-69
2023/10/10 12:46:07;;;;;;;4.32;2.65;;;25.80;44.80;;;;;;5052529;28;20094;-72
2023/10/10 12:48:39;;;;;;;3.50;2.63;;;25.70;44.90;;;;;;5069035;28;20071;-70
2023/10/10 12:51:09;;;;;;;3.85;2.83;;;25.70;44.70;;;;;;5071757;28;20048;-73
2023/10/10 12:53:39;;;;;;;4.65;2.10;;;25.70;44.80;;;;;;5037505;28;20124;-70
2023/10/10 12:56:21;;;;;;;5.18;2.92;;;25.60;45.00;;;;;;5030670;28;20111;-74
2023/10/10 12:58:57;;;;;;;4.00;2.47;;;25.70;45.00;;;;;;5032189;28;20153;-71
2023/10/10 13:01:24;;;;;;;4.85;2.47;;;25.70;45.20;;;;;;5032348;28;20108;-73
2023/10/10 13:03:51;;;;;;;4.05;3.08;;;25.70;45.40;;;;;;5041487;28;20041;-74
2023/10/10 13:06:18;;;;;;;4.95;2.33;;;25.70;45.80;;;;;;5052077;28;20032;-74
2023/10/10 13:11:20;;;;;;;2.38;2.17;;;25.70;47.00;;;;;;5051612;28;20473;-69
2023/10/10 13:13:51;;;;;;;8.30;3.65;;;25.60;47.30;;;;;;5050798;28;20369;-74
2023/10/10 13:19:06;;;;;;;2.40;1.75;;;25.70;47.40;;;;;;5052005;28;20044;-73
2023/10/10 13:21:53;;;;;;;2.30;1.58;;;25.80;47.40;;;;;;5050881;28;20033;-74
2023/10/10 13:24:20;;;;;;;2.42;1.77;;;25.70;47.30;;;;;;5051827;28;20043;-74
2023/10/10 13:26:49;;;;;;;3.22;2.22;;;25.70;47.20;;;;;;5052273;28;20044;-74
2023/10/10 13:29:16;;;;;;;4.78;1.83;;;25.70;47.40;;;;;;5050781;28;20039;-75
2023/10/10 13:31:46;;;;;;;2.28;1.50;;;25.60;49.30;;;;;;5052057;28;20511;-74
2023/10/10 13:34:13;;;;;;;7.07;1.50;;;25.70;49.20;;;;;;5050499;28;20426;-74
2023/10/10 13:36:39;;;;;;;3.33;2.15;;;25.60;49.00;;;;;;5034235;28;20094;-74
2023/10/10 13:39:07;;;;;;;2.72;1.60;;;25.70;48.70;;;;;;5051540;28;20036;-74
2023/10/10 13:41:36;;;;;;;5.40;1.90;;;25.60;48.40;;;;;;5067599;28;20029;-74
2023/10/10 13:44:04;;;;;;;5.78;1.63;;;25.70;48.30;;;;;;5051919;28;20048;-73
2023/10/10 13:46:39;;;;;;;2.90;2.00;;;25.60;48.10;;;;;;5048731;28;20090;-74
2023/10/10 13:49:08;;;;;;;4.85;2.40;;;25.70;48.00;;;;;;5051538;28;20025;-73
2023/10/10 13:51:41;;;;;;;2.83;2.10;;;25.60;47.80;;;;;;5050694;28;20059;-73
2023/10/10 13:54:07;;;;;;;3.38;1.90;;;25.60;47.70;;;;;;5050538;28;20250;-73
2023/10/10 13:56:33;;;;;;;3.33;1.42;;;25.70;47.60;;;;;;5050074;28;20036;-71
2023/10/10 13:59:00;;;;;;;2.85;1.80;;;25.70;47.50;;;;;;5049649;28;20029;-71
2023/10/10 14:01:29;;;;;;;3.35;1.48;;;25.70;47.00;;;;;;5033151;28;20032;-71
2023/10/10 14:07:00;;;;;;;4.22;1.55;;;25.60;45.60;;;;;;5028432;28;20060;-70
2023/10/10 14:09:31;;;;;;;4.50;2.03;;;25.70;45.30;;;;;;5028507;28;20500;-73
2023/10/10 14:12:02;;;;;;;4.72;2.63;;;25.70;45.10;;;;;;5028970;28;20112;-74
2023/10/10 14:14:30;;;;;;;4.15;2.30;;;25.60;43.50;;;;;;5012331;28;20398;-74
2023/10/10 14:16:56;;;;;;;3.40;2.05;;;25.60;42.70;;;;;;5012287;28;20529;-72
2023/10/10 14:19:24;;;;;;;3.53;2.45;;;25.70;42.10;;;;;;5025576;28;20899;-71
2023/10/10 14:21:52;;;;;;;6.63;2.50;;;25.50;42.10;;;;;;5012537;28;20200;-71
2023/10/10 14:24:19;;;;;;;8.55;2.50;;;25.50;42.10;;;;;;5032857;28;20060;-75
2023/10/10 14:26:48;;;;;;;3.85;2.10;;;25.50;42.10;;;;;;5016520;28;20040;-75
2023/10/10 14:29:15;;;;;;;2.75;2.22;;;25.50;42.20;;;;;;4977253;28;20061;-73
2023/10/10 14:31:44;;;;;;;4.35;2.47;;;25.50;42.20;;;;;;4993222;28;20046;-74
2023/10/10 14:34:19;;;;;;;2.30;2.03;;;25.60;42.30;;;;;;4993161;28;20445;-68
2023/10/10 14:36:48;;;;;;;9.55;2.75;;;25.50;42.40;;;;;;4992876;28;20378;-74
2023/10/10 14:39:30;;;;;;;3.22;2.05;;;25.50;42.40;;;;;;4976975;28;20043;-74
2023/10/10 14:41:59;;;;;;;2.90;2.22;;;25.50;42.50;;;;;;4982058;28;20048;-76
2023/10/10 14:44:26;;;;;;;6.68;2.17;;;25.60;42.70;;;;;;5012533;28;20125;-74
2023/10/10 14:46:57;;;;;;;2.92;2.25;;;25.50;42.70;;;;;;5012142;28;20089;-75
2023/10/10 14:49:30;;;;;;;4.13;2.35;;;25.50;42.90;;;;;;4995823;28;20038;-72
2023/10/10 14:52:06;;;;;;;3.80;2.60;;;25.50;42.90;;;;;;5011174;28;20117;-73
2023/10/10 14:54:37;;;;;;;3.85;2.20;;;25.50;42.90;;;;;;4993016;28;20416;-75
2023/10/10 14:57:04;;;;;;;4.18;2.40;;;25.60;44.40;;;;;;4989160;28;20053;-74
2023/10/10 14:59:31;;;;;;;8.63;3.47;;;25.80;46.60;;;;;;5004595;28;20614;-76
2023/10/10 15:01:59;;;;;;;9.13;2.78;;;26.20;48.90;;;;;;5034576;28;20037;-74
2023/10/10 15:04:28;;;;;;;5.00;2.65;;;26.30;45.40;;;;;;5032457;28;20055;-72
2023/10/10 15:06:55;;;;;;;5.60;2.60;;;26.20;45.20;;;;;;5015938;28;20037;-71
2023/10/10 15:09:25;;;;;;;3.55;2.25;;;26.10;44.90;;;;;;5033930;28;20061;-73
2023/10/10 15:11:52;;;;;;;4.53;2.47;;;26.00;44.70;;;;;;5032531;28;20124;-72
2023/10/10 15:14:19;;;;;;;4.07;2.30;;;26.10;44.40;;;;;;5031479;28;20077;-73
2023/10/10 15:16:48;;;;;;;7.85;3.50;;;26.00;46.90;;;;;;5032370;28;20041;-76
2023/10/10 15:19:15;;;;;;;5.07;2.35;;;26.00;45.90;;;;;;5031654;28;20408;-73
2023/10/10 15:21:41;;;;;;;3.67;3.13;;;26.10;44.70;;;;;;5031307;28;20044;-74
2023/10/10 15:24:15;;;;;;;5.60;2.85;;;26.10;43.40;;;;;;5034230;28;20041;-73
2023/10/10 15:26:51;;;;;;;4.18;3.00;;;26.10;43.40;;;;;;5031257;28;20333;-73
2023/10/10 15:29:20;;;;;;;5.93;2.60;;;26.20;43.30;;;;;;5031753;28;20140;-74
2023/10/10 15:31:47;;;;;;;4.90;2.70;;;26.10;44.30;;;;;;5031852;28;20033;-72
2023/10/10 15:34:13;;;;;;;8.50;4.55;;;26.30;45.80;;;;;;5031565;28;20038;-70
2023/10/10 15:36:43;;;;;;;8.57;4.05;;;26.50;43.70;;;;;;5032097;28;20045;-72
2023/10/10 15:39:10;;;;;;;7.03;4.80;;;26.50;42.40;;;;;;5030693;28;20036;-73
2023/10/10 15:41:38;;;;;;;8.20;4.63;;;26.50;42.70;;;;;;5032575;28;20099;-75
2023/10/10 15:44:06;;;;;;;12.30;5.95;;;26.40;42.80;;;;;;5030434;28;20555;-71
2023/10/10 15:46:35;;;;;;;13.63;5.97;;;26.30;42.90;;;;;;5031350;28;20044;-70
2023/10/10 15:49:08;;;;;;;12.50;6.07;;;26.20;43.20;;;;;;5031954;28;20053;-73
2023/10/10 15:51:37;;;;;;;19.85;7.95;;;26.30;43.50;;;;;;5031779;28;20453;-72
2023/10/10 15:54:08;;;;;;;16.25;7.28;;;26.20;44.00;;;;;;5031049;28;20025;-70
2023/10/10 15:56:37;;;;;;;7.55;4.38;;;26.30;44.50;;;;;;5031209;28;20037;-73
2023/10/10 15:59:04;;;;;;;7.22;3.35;;;26.30;44.90;;;;;;5031729;28;20043;-72
2023/10/10 16:01:33;;;;;;;4.70;2.58;;;26.20;45.00;;;;;;5049495;28;20029;-75
2023/10/10 16:04:13;;;;;;;4.22;2.60;;;26.30;44.60;;;;;;5051302;28;20060;-73
2023/10/10 16:06:42;;;;;;;8.10;2.72;;;26.30;44.40;;;;;;5051233;28;20033;-73
2023/10/10 16:09:19;;;;;;;3.85;2.65;;;26.20;44.40;;;;;;5051188;28;20947;-75
2023/10/10 16:11:52;;;;;;;2.75;2.45;;;26.10;44.20;;;;;;5049689;28;20041;-74
2023/10/10 16:14:19;;;;;;;;;;;26.10;44.30;;;;;;5051952;28;20557;-74
2023/10/10 16:16:47;;;;;;;5.85;3.42;;;26.10;44.40;;;;;;5083564;28;19908;-72
2023/10/10 16:19:40;;;;;;;8.48;3.97;;;26.10;44.40;;;;;;5051450;28;20036;-73
2023/10/10 16:22:06;;;;;;;12.00;5.70;;;26.20;45.00;;;;;;5051329;28;20584;-73
2023/10/10 16:24:32;;;;;;;10.38;4.47;;;26.00;45.90;;;;;;5051820;28;20120;-74
2023/10/10 16:26:59;;;;;;;12.07;5.65;;;26.20;45.80;;;;;;5052810;28;20025;-74
2023/10/10 16:29:33;;;;;;;11.40;4.53;;;26.00;45.60;;;;;;5052989;28;20047;-74
2023/10/10 16:32:07;;;;;;;9.55;4.30;;;26.10;45.50;;;;;;5052419;28;20031;-75
2023/10/10 16:34:34;;;;;;;10.07;5.22;;;26.00;45.40;;;;;;5051525;28;20143;-75
2023/10/10 16:37:00;;;;;;;7.07;3.75;;;26.00;45.30;;;;;;5052736;28;20476;-73
2023/10/10 16:39:26;;;;;;;8.93;4.88;;;26.00;45.50;;;;;;5052447;28;20043;-74